Voo Virtual
Olá, seja bem-vindo(a) ao Voo Virtual. Caso ainda não seja membro da nossa comunidade, registre-se, para que possa participar ativamente e ter acesso a todos os conteúdos do site.
Por favor leia as regras do fórum aqui antes de postar, para evitar advertências e suspensão.


Decolando SBSP

Ir em baixo

Decolando SBSP

Mensagem por ceijrshe em Qui 31 Mar 2016, 21:47

SBSP 312300Z 16009KT 9999 -RA FEW015 FEW040TCU 23/20 Q1021













avatar
ceijrshe
Tenente-Coronel
Tenente-Coronel

Masculino
Inscrito em : 24/02/2012
Mensagens : 921
Reputação : 22
Idade : 49
Simulador preferido : Prepar3Dv4,XP11
Nacionalidade : Brasil

Voltar ao Topo Ir em baixo

Re: Decolando SBSP

Mensagem por Gabriel Moradillo em Sex 01 Abr 2016, 19:36

Que imersão!!!!

Muito bom thumbsup

_________________
Who Jah bless, no one curse
avatar
Gabriel Moradillo
Major-Brigadeiro
Major-Brigadeiro

Masculino
Inscrito em : 26/06/2011
Mensagens : 3144
Reputação : 115
Idade : 20
Emprego/lazer : UFBA
Nacionalidade : Brasil

Voltar ao Topo Ir em baixo

Re: Decolando SBSP

Mensagem por rbirtel em Qui 01 Jun 2017, 17:00

Belas imagens! Qual cenario voce esta utilizando para SP? Obrigado

rbirtel
Recruta
Recruta

Masculino
Inscrito em : 01/06/2017
Mensagens : 3
Reputação : 0
Idade : 38
Nacionalidade : Brasil

Voltar ao Topo Ir em baixo

Voltar ao Topo


 
Permissão deste fórum:
Você não pode responder aos tópicos neste fórum